TimeCDT,TemperatureF,Dew PointF,Humidity,Sea Level PressureIn,VisibilityMPH,Wind Direction,Wind SpeedMPH,Gust SpeedMPH,PrecipitationIn,Events,Conditions,WindDirDegrees,DateUTC
12:53 AM,77.0,68.0,74,29.76,10.0,WSW,8.1,-,N/A,,Clear,240,2013-08-31 05:53:00
1:53 AM,75.0,69.1,82,29.76,10.0,SW,5.8,-,N/A,,Clear,230,2013-08-31 06:53:00
2:53 AM,73.9,70.0,87,29.76,10.0,WSW,3.5,-,N/A,,Clear,250,2013-08-31 07:53:00
3:53 AM,73.0,71.1,93,29.75,9.0,West,5.8,-,N/A,,Clear,280,2013-08-31 08:53:00
4:53 AM,73.9,73.0,97,29.77,6.0,NW,4.6,-,N/A,,Clear,320,2013-08-31 09:53:00
5:53 AM,72.0,71.1,97,29.77,3.0,NW,5.8,-,N/A,,Clear,310,2013-08-31 10:53:00
6:36 AM,71.6,71.6,100,29.81,2.0,West,4.6,-,N/A,,Clear,280,2013-08-31 11:36:00
6:53 AM,72.0,71.1,97,29.78,2.0,WNW,5.8,-,N/A,,Clear,290,2013-08-31 11:53:00
7:09 AM,73.4,71.6,94,29.81,3.0,WNW,6.9,-,N/A,,Scattered Clouds,300,2013-08-31 12:09:00
7:53 AM,73.9,72.0,93,29.80,6.0,WNW,8.1,-,N/A,,Partly Cloudy,300,2013-08-31 12:53:00
8:27 AM,75.2,71.6,89,29.83,8.0,NNW,10.4,-,N/A,,Scattered Clouds,330,2013-08-31 13:27:00
8:36 AM,75.2,71.6,89,29.83,8.0,North,10.4,-,N/A,,Mostly Cloudy,350,2013-08-31 13:36:00
8:53 AM,77.0,72.0,84,29.80,10.0,NNW,9.2,-,N/A,,Mostly Cloudy,330,2013-08-31 13:53:00
9:04 AM,78.8,71.6,78,29.83,10.0,NNW,9.2,-,N/A,,Scattered Clouds,330,2013-08-31 14:04:00
9:53 AM,81.0,71.1,72,29.81,10.0,NNW,8.1,-,N/A,,Clear,330,2013-08-31 14:53:00
10:53 AM,81.0,71.1,72,29.81,10.0,NNW,6.9,-,N/A,,Clear,340,2013-08-31 15:53:00
11:53 AM,82.9,71.1,67,29.82,10.0,North,8.1,-,N/A,,Partly Cloudy,350,2013-08-31 16:53:00
12:10 PM,82.4,71.6,70,29.84,10.0,North,10.4,-,N/A,,Mostly Cloudy,360,2013-08-31 17:10:00
12:53 PM,82.9,71.1,67,29.80,10.0,Calm,Calm,-,N/A,,Mostly Cloudy,0,2013-08-31 17:53:00
1:12 PM,84.2,71.6,66,29.83,10.0,NNE,4.6,-,N/A,,Scattered Clouds,30,2013-08-31 18:12:00
1:21 PM,84.2,71.6,66,29.84,10.0,Variable,5.8,-,N/A,,Mostly Cloudy,0,2013-08-31 18:21:00
1:53 PM,84.0,71.1,65,29.81,10.0,NNE,4.6,-,N/A,,Mostly Cloudy,30,2013-08-31 18:53:00
2:10 PM,84.2,71.6,66,29.83,10.0,NNW,5.8,-,N/A,,Scattered Clouds,340,2013-08-31 19:10:00
2:34 PM,84.2,71.6,66,29.83,10.0,North,5.8,-,N/A,,Mostly Cloudy,10,2013-08-31 19:34:00
2:44 PM,84.2,71.6,66,29.83,10.0,North,8.1,-,N/A,,Scattered Clouds,350,2013-08-31 19:44:00
2:53 PM,84.0,71.1,65,29.80,10.0,North,8.1,-,N/A,,Partly Cloudy,10,2013-08-31 19:53:00
3:53 PM,86.0,70.0,59,29.80,10.0,NE,4.6,-,N/A,,Clear,40,2013-08-31 20:53:00
4:53 PM,86.0,70.0,59,29.78,10.0,North,4.6,-,N/A,,Clear,360,2013-08-31 21:53:00
5:53 PM,86.0,70.0,59,29.77,10.0,ENE,4.6,-,N/A,,Clear,60,2013-08-31 22:53:00
6:53 PM,84.0,69.1,61,29.77,10.0,NE,3.5,-,N/A,,Clear,40,2013-08-31 23:53:00
7:53 PM,75.9,69.1,79,29.77,10.0,Calm,Calm,-,N/A,,Clear,0,2013-09-01 00:53:00
8:53 PM,78.1,69.1,74,29.78,10.0,NE,5.8,-,N/A,,Clear,50,2013-09-01 01:53:00
9:53 PM,77.0,68.0,74,29.80,10.0,ENE,4.6,-,N/A,,Clear,60,2013-09-01 02:53:00
10:53 PM,75.0,68.0,79,29.80,10.0,NE,8.1,-,N/A,,Clear,50,2013-09-01 03:53:00
11:53 PM,73.0,68.0,84,29.80,10.0,East,5.8,-,N/A,,Clear,80,2013-09-01 04:53:00